createdAt,value
2018-03-22T00:01:38.639Z,89.00
2018-03-22T00:04:06.186Z,88.20
2018-03-22T00:06:33.737Z,88.30
2018-03-22T00:09:01.410Z,89.80
2018-03-22T00:11:29.420Z,89.10
2018-03-22T00:13:56.982Z,89.80
2018-03-22T00:16:24.744Z,88.80
2018-03-22T00:18:52.537Z,88.30
2018-03-22T00:21:20.209Z,88.80
2018-03-22T00:23:47.922Z,90.30
2018-03-22T00:26:15.531Z,90.40
2018-03-22T00:28:43.086Z,90.40
2018-03-22T00:31:10.718Z,89.60
2018-03-22T00:33:38.537Z,89.60
2018-03-22T00:36:06.099Z,89.30
2018-03-22T00:38:33.694Z,89.30
2018-03-22T00:41:01.348Z,88.90
2018-03-22T00:43:29.026Z,88.20
2018-03-22T00:45:56.884Z,88.00
2018-03-22T00:48:24.983Z,88.10
2018-03-22T00:50:52.811Z,88.00
2018-03-22T00:53:20.710Z,88.90
2018-03-22T00:55:49.032Z,90.10
2018-03-22T00:58:16.594Z,90.10
2018-03-22T01:00:44.345Z,90.20
2018-03-22T01:03:12.540Z,89.80
2018-03-22T01:05:40.092Z,90.00
2018-03-22T01:08:08.038Z,89.30
2018-03-22T01:10:35.794Z,88.30
2018-03-22T01:13:03.550Z,88.00
2018-03-22T01:15:31.137Z,88.00
2018-03-22T01:17:58.874Z,88.60
2018-03-22T01:20:26.581Z,90.40
2018-03-22T01:22:54.174Z,88.30
2018-03-22T01:25:21.732Z,88.30
2018-03-22T01:27:50.057Z,88.90
2018-03-22T01:30:29.406Z,88.20
2018-03-22T01:32:57.974Z,88.70
2018-03-22T01:35:25.850Z,88.40
2018-03-22T01:37:53.442Z,87.80
2018-03-22T01:40:21.127Z,87.90
2018-03-22T01:42:48.678Z,88.80
2018-03-22T01:45:16.280Z,88.50
2018-03-22T01:47:43.885Z,88.10
2018-03-22T01:50:11.820Z,87.80
2018-03-22T01:52:51.147Z,87.50
2018-03-22T01:55:18.707Z,88.30
2018-03-22T01:57:46.341Z,90.20
2018-03-22T02:00:13.967Z,89.30
2018-03-22T02:02:42.557Z,88.40
2018-03-22T02:05:10.220Z,88.40
2018-03-22T02:07:37.969Z,88.60
2018-03-22T02:10:06.345Z,88.10
2018-03-22T02:12:33.875Z,88.00
2018-03-22T02:15:01.931Z,88.10
2018-03-22T02:17:29.613Z,87.90
2018-03-22T02:19:57.175Z,87.10
2018-03-22T02:22:24.810Z,87.70
2018-03-22T02:24:52.358Z,88.00
2018-03-22T02:27:19.924Z,87.40
2018-03-22T02:29:47.523Z,87.10
2018-03-22T02:32:15.838Z,89.80
2018-03-22T02:34:43.584Z,89.80
2018-03-22T02:37:11.331Z,89.80
2018-03-22T02:39:39.779Z,89.40
2018-03-22T02:42:07.333Z,89.30
2018-03-22T02:44:34.963Z,88.40
2018-03-22T02:47:02.704Z,88.50
2018-03-22T02:49:30.274Z,88.80
2018-03-22T02:51:57.898Z,88.60
2018-03-22T02:54:26.317Z,88.60
2018-03-22T02:56:54.574Z,88.60
2018-03-22T02:59:22.283Z,88.40
2018-03-22T03:01:49.837Z,88.50
2018-03-22T03:04:17.396Z,87.40
2018-03-22T03:06:44.987Z,87.00
2018-03-22T03:09:12.550Z,87.10
2018-03-22T03:11:40.875Z,87.40
2018-03-22T03:14:08.497Z,87.40
2018-03-22T03:16:36.458Z,87.40
2018-03-22T03:19:04.018Z,88.00
2018-03-22T03:21:32.362Z,88.70
2018-03-22T03:23:59.931Z,88.70
2018-03-22T03:26:27.731Z,88.00
2018-03-22T03:28:55.341Z,89.30
2018-03-22T03:31:22.899Z,89.20
2018-03-22T03:33:50.713Z,88.10
2018-03-22T03:36:18.302Z,87.10
2018-03-22T03:38:45.849Z,87.70
2018-03-22T03:41:13.433Z,89.50
2018-03-22T03:43:41.238Z,88.00
2018-03-22T03:46:09.635Z,87.70
2018-03-22T03:48:37.289Z,87.60
2018-03-22T03:51:05.006Z,87.40
2018-03-22T03:53:32.576Z,87.90
2018-03-22T03:56:00.157Z,88.20
2018-03-22T03:58:27.983Z,87.60
2018-03-22T04:00:55.541Z,88.00
2018-03-22T04:03:23.310Z,88.90
2018-03-22T04:05:50.898Z,88.60
2018-03-22T04:08:18.801Z,89.60
2018-03-22T04:10:46.361Z,88.20
2018-03-22T04:13:14.138Z,88.30
2018-03-22T04:15:41.951Z,88.30
2018-03-22T04:18:09.830Z,88.20
2018-03-22T04:20:37.746Z,87.70
2018-03-22T04:23:05.309Z,87.80
2018-03-22T04:25:32.862Z,88.20
2018-03-22T04:28:00.527Z,87.10
2018-03-22T04:30:28.080Z,87.20
2018-03-22T04:32:55.690Z,87.10
2018-03-22T04:35:23.542Z,87.50
2018-03-22T04:37:51.861Z,87.50
2018-03-22T04:40:19.654Z,87.40
2018-03-22T04:42:47.499Z,88.00
2018-03-22T04:45:15.064Z,87.10
2018-03-22T04:47:42.621Z,86.80
2018-03-22T04:50:10.234Z,87.50
2018-03-22T04:52:37.958Z,87.50
2018-03-22T04:55:05.815Z,87.70
2018-03-22T04:57:33.402Z,88.70
2018-03-22T05:00:01.281Z,87.90
2018-03-22T05:02:28.840Z,87.20
2018-03-22T05:04:56.441Z,87.10
2018-03-22T05:07:23.999Z,86.90
2018-03-22T05:09:51.559Z,87.30
2018-03-22T05:12:19.161Z,87.70
2018-03-22T05:14:46.718Z,87.90
2018-03-22T05:17:15.236Z,87.10
2018-03-22T05:19:43.027Z,87.00
2018-03-22T05:22:10.578Z,87.50
2018-03-22T05:24:38.143Z,87.40
2018-03-22T05:27:06.035Z,88.50
2018-03-22T05:29:34.539Z,88.10
2018-03-22T05:32:02.124Z,88.00
2018-03-22T05:34:29.909Z,87.90
2018-03-22T05:36:57.491Z,87.80
2018-03-22T05:39:25.851Z,87.70
2018-03-22T05:41:53.662Z,87.70
2018-03-22T05:44:21.348Z,88.20
2018-03-22T05:46:49.078Z,88.50
2018-03-22T05:49:16.682Z,86.90
2018-03-22T05:51:44.330Z,87.10
2018-03-22T05:54:11.898Z,87.80
2018-03-22T05:56:39.515Z,88.10
2018-03-22T05:59:07.985Z,87.90
2018-03-22T06:01:35.726Z,87.60
2018-03-22T06:04:03.338Z,87.60
2018-03-22T06:06:30.943Z,88.50
2018-03-22T06:08:58.877Z,89.20
2018-03-22T06:11:26.518Z,88.60
2018-03-22T06:13:54.261Z,88.70
2018-03-22T06:16:22.587Z,87.70
2018-03-22T06:18:50.200Z,87.60
2018-03-22T06:21:18.621Z,87.80
2018-03-22T06:23:46.481Z,87.70
2018-03-22T06:26:14.215Z,87.80
2018-03-22T06:28:41.776Z,87.90
2018-03-22T06:31:09.347Z,87.50
2018-03-22T06:33:36.957Z,87.20
2018-03-22T06:36:04.505Z,87.10
2018-03-22T06:38:32.222Z,86.60
2018-03-22T06:40:59.814Z,87.00
2018-03-22T06:43:27.375Z,86.70
2018-03-22T06:45:54.932Z,86.50
2018-03-22T06:48:22.715Z,86.10
2018-03-22T06:50:50.639Z,85.60
2018-03-22T06:53:18.204Z,84.50
2018-03-22T06:55:45.844Z,84.80
2018-03-22T06:58:13.399Z,84.30
2018-03-22T07:00:40.954Z,84.00
2018-03-22T07:03:08.709Z,83.80
2018-03-22T07:05:37.039Z,83.70
2018-03-22T07:08:04.598Z,83.60
2018-03-22T07:10:32.212Z,82.80
2018-03-22T07:13:00.102Z,82.70
2018-03-22T07:15:27.666Z,82.70
2018-03-22T07:17:55.266Z,81.90
2018-03-22T07:20:22.886Z,80.80
2018-03-22T07:22:50.513Z,82.50
2018-03-22T07:25:18.116Z,79.40
2018-03-22T07:27:45.684Z,78.30
2018-03-22T07:30:13.286Z,78.10
2018-03-22T07:32:40.976Z,78.50
2018-03-22T07:35:08.698Z,78.80
2018-03-22T07:37:36.261Z,77.70
2018-03-22T07:40:03.863Z,77.80
2018-03-22T07:42:31.457Z,76.30
2018-03-22T07:44:59.064Z,73.90
2018-03-22T07:47:26.650Z,74.40
2018-03-22T07:49:54.253Z,74.80
2018-03-22T07:52:22.627Z,68.70
2018-03-22T07:54:50.230Z,68.70
2018-03-22T07:57:17.838Z,71.80
2018-03-22T07:59:46.171Z,66.80
2018-03-22T08:02:13.766Z,66.80
2018-03-22T08:04:41.427Z,65.90
2018-03-22T08:07:08.995Z,63.30
2018-03-22T08:09:36.785Z,61.50
2018-03-22T08:12:04.540Z,63.10
2018-03-22T08:14:32.434Z,60.60
2018-03-22T08:17:00.028Z,62.40
2018-03-22T08:19:28.409Z,58.70
2018-03-22T08:21:55.976Z,58.80
2018-03-22T08:24:23.957Z,58.70
2018-03-22T08:26:52.275Z,56.10
2018-03-22T08:29:19.862Z,56.00
2018-03-22T08:31:47.721Z,56.80
2018-03-22T08:34:15.533Z,55.90
2018-03-22T08:36:43.093Z,56.60
2018-03-22T08:39:10.893Z,53.90
2018-03-22T08:41:38.462Z,52.70
2018-03-22T08:44:06.010Z,51.80
2018-03-22T08:46:33.626Z,51.30
2018-03-22T08:49:01.527Z,53.80
2018-03-22T08:51:29.221Z,54.20
2018-03-22T08:53:56.913Z,50.10
2018-03-22T08:56:25.219Z,49.00
2018-03-22T08:58:52.947Z,49.00
2018-03-22T09:01:20.690Z,49.30
2018-03-22T09:03:49.038Z,49.10
2018-03-22T09:06:16.618Z,49.00
2018-03-22T09:08:45.476Z,48.40
2018-03-22T09:11:13.059Z,48.40
2018-03-22T09:13:40.636Z,46.80
2018-03-22T09:16:08.686Z,47.50
2018-03-22T09:18:36.331Z,49.40
2018-03-22T09:21:03.970Z,46.70
2018-03-22T09:23:31.590Z,46.60
2018-03-22T09:25:59.516Z,47.50
2018-03-22T09:28:27.090Z,47.10
2018-03-22T09:30:54.707Z,43.00
2018-03-22T09:33:22.491Z,46.10
2018-03-22T09:35:50.259Z,42.30
2018-03-22T09:38:17.907Z,41.70
2018-03-22T09:40:45.532Z,45.10
2018-03-22T09:43:13.871Z,40.80
2018-03-22T09:45:41.499Z,40.80
2018-03-22T09:48:09.087Z,40.30
2018-03-22T09:50:36.660Z,42.90
2018-03-22T09:53:05.803Z,39.90
2018-03-22T09:55:33.375Z,40.00
2018-03-22T09:58:01.048Z,39.60
2018-03-22T10:00:28.661Z,41.80
2018-03-22T10:02:57.104Z,41.00
2018-03-22T10:05:24.811Z,41.00
2018-03-22T10:07:52.426Z,40.70
2018-03-22T10:10:20.058Z,40.90
2018-03-22T10:12:47.635Z,38.30
2018-03-22T10:15:15.254Z,39.80
2018-03-22T10:17:42.851Z,37.90
2018-03-22T10:20:10.435Z,37.90
2018-03-22T10:22:38.235Z,36.00
2018-03-22T10:25:05.830Z,38.40
2018-03-22T10:27:33.510Z,38.50
2018-03-22T10:30:01.445Z,40.50
2018-03-22T10:32:29.038Z,39.80
2018-03-22T10:34:56.875Z,38.70
2018-03-22T10:37:24.492Z,35.00
2018-03-22T10:39:52.401Z,34.80
2018-03-22T10:42:19.992Z,34.00
2018-03-22T10:44:48.059Z,37.00
2018-03-22T10:47:17.527Z,34.60
2018-03-22T10:49:45.297Z,34.80
2018-03-22T10:52:12.903Z,33.70
2018-03-22T10:54:40.459Z,34.90
2018-03-22T10:57:08.009Z,38.00
2018-03-22T10:59:35.586Z,33.80
2018-03-22T11:02:03.945Z,33.60
2018-03-22T11:04:31.486Z,33.70
2018-03-22T11:06:59.110Z,32.80
2018-03-22T11:09:27.546Z,33.90
2018-03-22T11:11:55.241Z,32.00
2018-03-22T11:14:22.828Z,34.80
2018-03-22T11:16:50.898Z,35.10
2018-03-22T11:19:18.446Z,36.50
2018-03-22T11:21:46.357Z,36.50
2018-03-22T11:24:13.919Z,33.60
2018-03-22T11:26:41.667Z,34.10
2018-03-22T11:29:09.593Z,35.10
2018-03-22T11:31:37.157Z,35.60
2018-03-22T11:34:04.794Z,31.20
2018-03-22T11:36:32.375Z,34.40
2018-03-22T11:38:59.930Z,34.50
2018-03-22T11:41:28.104Z,31.60
2018-03-22T11:43:55.693Z,31.10
2018-03-22T11:46:23.275Z,31.30
2018-03-22T11:48:51.586Z,33.50
2018-03-22T11:51:19.172Z,33.50
2018-03-22T11:53:46.946Z,36.10
2018-03-22T11:56:14.479Z,31.30
2018-03-22T11:58:42.273Z,30.40
2018-03-22T12:01:09.913Z,28.50
2018-03-22T12:03:37.804Z,29.80
2018-03-22T12:06:05.662Z,29.00
2018-03-22T12:08:33.334Z,29.30
2018-03-22T12:11:01.201Z,28.80
2018-03-22T12:13:29.089Z,26.90
2018-03-22T12:15:57.443Z,30.60
2018-03-22T12:18:26.587Z,28.70
2018-03-22T12:20:54.418Z,28.60
2018-03-22T12:23:21.962Z,32.10
2018-03-22T12:25:49.505Z,29.70
2018-03-22T12:31:08.334Z,30.80
2018-03-22T12:33:35.891Z,34.80
2018-03-22T12:36:03.439Z,33.30
2018-03-22T12:38:32.061Z,29.60
2018-03-22T12:40:59.605Z,29.60
2018-03-22T12:43:27.362Z,29.30
2018-03-22T12:45:55.128Z,30.20
2018-03-22T12:48:22.673Z,27.50
2018-03-22T12:50:50.390Z,33.20
2018-03-22T12:53:18.262Z,29.80
2018-03-22T12:55:46.054Z,30.60
2018-03-22T12:58:13.603Z,29.60
2018-03-22T13:00:41.962Z,29.40
2018-03-22T13:03:09.522Z,29.40
2018-03-22T13:05:37.109Z,31.60
2018-03-22T13:08:04.832Z,27.60
2018-03-22T13:10:32.384Z,28.00
2018-03-22T13:13:00.358Z,31.10
2018-03-22T13:15:28.917Z,30.50
2018-03-22T13:17:56.457Z,30.50
2018-03-22T13:20:24.003Z,29.80
2018-03-22T13:22:52.368Z,31.60
2018-03-22T13:25:20.156Z,31.60
2018-03-22T13:27:47.711Z,31.60
2018-03-22T13:30:15.618Z,35.70
2018-03-22T13:32:43.497Z,31.10
2018-03-22T13:35:11.958Z,33.90
2018-03-22T13:37:39.691Z,33.90
2018-03-22T13:40:07.325Z,29.70
2018-03-22T13:42:35.640Z,33.30
2018-03-22T13:45:03.297Z,33.30
2018-03-22T13:47:31.234Z,31.80
2018-03-22T13:50:00.551Z,38.30
2018-03-22T13:52:28.241Z,38.00
2018-03-22T13:54:55.797Z,39.20
2018-03-22T13:57:23.537Z,39.30
2018-03-22T13:59:51.126Z,40.30
2018-03-22T14:02:18.865Z,39.70
2018-03-22T14:04:46.448Z,38.00
2018-03-22T14:07:14.263Z,40.20
2018-03-22T14:09:41.796Z,38.50
2018-03-22T14:12:09.559Z,39.70
2018-03-22T14:14:37.399Z,38.30
2018-03-22T14:17:04.942Z,40.00
2018-03-22T14:19:32.802Z,39.50
2018-03-22T14:22:00.608Z,39.80
2018-03-22T14:24:28.159Z,37.70
2018-03-22T14:26:55.908Z,38.10
2018-03-22T14:29:23.692Z,36.60
2018-03-22T14:31:51.243Z,36.10
2018-03-22T14:34:19.093Z,35.80
2018-03-22T14:36:46.707Z,38.20
2018-03-22T14:39:14.635Z,37.50
2018-03-22T14:41:42.178Z,36.80
2018-03-22T14:44:09.850Z,35.70
2018-03-22T14:46:37.773Z,34.40
2018-03-22T14:49:05.339Z,38.00
2018-03-22T14:51:33.217Z,37.30
2018-03-22T14:54:00.798Z,39.30
2018-03-22T14:56:28.381Z,35.00
2018-03-22T14:58:55.981Z,36.50
2018-03-22T15:01:23.543Z,36.60
2018-03-22T15:03:51.108Z,37.40
2018-03-22T15:06:18.929Z,38.30
2018-03-22T15:08:46.452Z,37.20
2018-03-22T15:11:14.002Z,38.70
2018-03-22T15:13:41.762Z,37.50
2018-03-22T15:16:09.506Z,38.30
2018-03-22T15:18:37.108Z,41.30
2018-03-22T15:21:04.888Z,42.00
2018-03-22T15:23:33.234Z,42.20
2018-03-22T15:26:00.797Z,42.20
2018-03-22T15:28:28.564Z,45.70
2018-03-22T15:30:56.116Z,46.80
2018-03-22T15:33:23.789Z,40.40
2018-03-22T15:35:51.914Z,38.80
2018-03-22T15:38:19.533Z,43.40
2018-03-22T15:40:47.187Z,41.30
2018-03-22T15:43:14.779Z,41.50
2018-03-22T15:45:42.576Z,40.70
2018-03-22T15:48:10.200Z,42.50
2018-03-22T15:50:38.566Z,46.50
2018-03-22T15:53:06.942Z,49.50
2018-03-22T15:55:34.621Z,49.50
2018-03-22T15:58:02.246Z,50.10
2018-03-22T16:00:29.821Z,50.50
2018-03-22T16:02:57.438Z,52.40
2018-03-22T16:05:25.199Z,49.70
2018-03-22T16:07:53.272Z,52.70
2018-03-22T16:10:20.852Z,57.50
2018-03-22T16:12:48.677Z,57.30
2018-03-22T16:15:16.701Z,57.70
2018-03-22T16:17:45.020Z,58.40
2018-03-22T16:20:12.707Z,58.40
2018-03-22T16:22:40.267Z,62.30
2018-03-22T16:25:07.818Z,65.00
2018-03-22T16:27:35.411Z,65.90
2018-03-22T16:30:03.771Z,64.90
2018-03-22T16:32:31.497Z,65.10
2018-03-22T16:34:59.202Z,66.60
2018-03-22T16:37:27.041Z,67.50
2018-03-22T16:39:55.431Z,68.90
2018-03-22T16:42:23.223Z,69.00
2018-03-22T16:44:51.543Z,69.00
2018-03-22T16:47:19.114Z,68.90
2018-03-22T16:49:46.739Z,68.60
2018-03-22T16:52:14.349Z,68.60
2018-03-22T16:54:41.982Z,69.40
2018-03-22T16:57:09.568Z,69.90
2018-03-22T16:59:37.408Z,70.70
2018-03-22T17:02:05.070Z,71.10
2018-03-22T17:04:32.724Z,71.10
2018-03-22T17:07:00.313Z,71.50
2018-03-22T17:09:27.921Z,72.20
2018-03-22T17:11:56.279Z,72.70
2018-03-22T17:14:23.842Z,72.70
2018-03-22T17:16:52.172Z,73.10
2018-03-22T17:19:19.774Z,74.50
2018-03-22T17:21:48.422Z,73.10
2018-03-22T17:24:16.002Z,73.20
2018-03-22T17:26:44.014Z,73.00
2018-03-22T17:29:11.917Z,75.00
2018-03-22T17:31:39.474Z,75.90
2018-03-22T17:34:07.071Z,75.70
2018-03-22T17:36:34.673Z,75.00
2018-03-22T17:39:02.459Z,74.80
2018-03-22T17:41:30.062Z,73.30
2018-03-22T17:43:57.892Z,74.00
2018-03-22T17:46:25.484Z,75.00
2018-03-22T17:48:53.900Z,76.30
2018-03-22T17:51:21.647Z,76.30
2018-03-22T17:53:49.210Z,76.70
2018-03-22T17:56:16.824Z,76.80
2018-03-22T17:58:44.409Z,76.90
2018-03-22T18:01:12.735Z,76.90
2018-03-22T18:03:40.592Z,76.90
2018-03-22T18:06:08.156Z,76.90
2018-03-22T18:08:35.748Z,76.90
2018-03-22T18:11:03.470Z,77.30
2018-03-22T18:13:31.335Z,77.40
2018-03-22T18:15:58.915Z,78.20
2018-03-22T18:18:26.525Z,78.60
2018-03-22T18:20:54.981Z,78.90
2018-03-22T18:23:23.542Z,79.70
2018-03-22T18:25:51.150Z,79.80
2018-03-22T18:28:18.717Z,80.90
2018-03-22T18:30:46.395Z,80.70
2018-03-22T18:33:14.764Z,81.00
2018-03-22T18:35:42.325Z,81.10
2018-03-22T18:38:09.993Z,80.50
2018-03-22T18:40:38.521Z,80.60
2018-03-22T18:43:07.018Z,81.80
2018-03-22T18:45:34.586Z,81.80
2018-03-22T18:48:02.213Z,82.20
2018-03-22T18:50:29.781Z,81.50
2018-03-22T18:52:58.163Z,81.40
2018-03-22T18:55:25.786Z,81.40
2018-03-22T18:57:53.402Z,81.80
2018-03-22T19:00:21.102Z,81.70
2018-03-22T19:02:48.708Z,82.00
2018-03-22T19:05:16.313Z,82.00
2018-03-22T19:07:43.900Z,83.10
2018-03-22T19:10:11.514Z,83.90
2018-03-22T19:12:39.082Z,84.20
2018-03-22T19:15:06.656Z,83.40
2018-03-22T19:17:34.284Z,83.10
2018-03-22T19:20:01.843Z,84.30
2018-03-22T19:22:29.446Z,84.40
2018-03-22T19:24:57.065Z,83.60
2018-03-22T19:27:24.824Z,84.60
2018-03-22T19:29:52.420Z,84.70
2018-03-22T19:32:20.911Z,85.40
2018-03-22T19:34:50.036Z,85.20
2018-03-22T19:37:17.630Z,85.00
2018-03-22T19:39:45.528Z,85.10
2018-03-22T19:42:13.603Z,85.50
2018-03-22T19:44:42.155Z,86.10
2018-03-22T19:47:09.833Z,86.50
2018-03-22T19:49:37.400Z,85.10
2018-03-22T19:52:05.001Z,85.20
2018-03-22T19:54:33.422Z,84.50
2018-03-22T19:57:01.140Z,84.50
2018-03-22T19:59:28.811Z,84.90
2018-03-22T20:01:56.420Z,84.80
2018-03-22T20:04:23.993Z,86.00
2018-03-22T20:06:51.572Z,85.50
2018-03-22T20:09:19.224Z,85.80
2018-03-22T20:11:47.559Z,85.60
2018-03-22T20:14:15.129Z,85.50
2018-03-22T20:16:43.014Z,86.20
2018-03-22T20:19:11.359Z,86.00
2018-03-22T20:21:38.918Z,85.90
2018-03-22T20:24:07.099Z,85.90
2018-03-22T20:26:34.667Z,85.30
2018-03-22T20:29:03.217Z,86.10
2018-03-22T20:31:30.884Z,86.20
2018-03-22T20:33:58.536Z,87.90
2018-03-22T20:36:26.179Z,88.40
2018-03-22T20:38:53.811Z,88.40
2018-03-22T20:41:22.259Z,87.30
2018-03-22T20:43:50.244Z,87.20
2018-03-22T20:46:17.871Z,88.90
2018-03-22T20:48:45.424Z,88.40
2018-03-22T20:51:13.083Z,87.30
2018-03-22T20:53:40.823Z,87.80
2018-03-22T20:56:08.432Z,88.00
2018-03-22T20:58:36.273Z,88.40
2018-03-22T21:01:03.861Z,87.90
2018-03-22T21:03:31.497Z,88.20
2018-03-22T21:05:59.075Z,88.60
2018-03-22T21:08:26.696Z,88.30
2018-03-22T21:10:54.279Z,87.70
2018-03-22T21:13:21.838Z,88.10
2018-03-22T21:15:49.494Z,88.20
2018-03-22T21:18:17.081Z,89.30
2018-03-22T21:20:44.684Z,89.80
2018-03-22T21:23:13.158Z,89.30
2018-03-22T21:25:40.949Z,89.10
2018-03-22T21:28:08.567Z,89.70
2018-03-22T21:30:36.443Z,89.30
2018-03-22T21:33:04.007Z,89.00
2018-03-22T21:35:31.780Z,89.00
2018-03-22T21:37:59.383Z,90.00
2018-03-22T21:40:26.958Z,89.10
2018-03-22T21:42:55.304Z,90.10
2018-03-22T21:45:23.145Z,90.10
2018-03-22T21:47:50.721Z,90.20
2018-03-22T21:50:18.379Z,90.30
2018-03-22T21:52:46.003Z,90.50
2018-03-22T21:55:13.704Z,89.90
2018-03-22T21:57:41.284Z,90.00
2018-03-22T22:00:09.060Z,90.10
2018-03-22T22:02:36.627Z,90.40
2018-03-22T22:05:04.317Z,90.20
2018-03-22T22:07:31.918Z,90.30
2018-03-22T22:09:59.482Z,90.70
2018-03-22T22:12:27.046Z,90.60
2018-03-22T22:14:54.637Z,90.50
2018-03-22T22:17:23.090Z,90.90
2018-03-22T22:19:50.918Z,90.90
2018-03-22T22:22:18.523Z,90.60
2018-03-22T22:24:46.077Z,90.30
2018-03-22T22:27:13.899Z,90.50
2018-03-22T22:29:41.498Z,90.80
2018-03-22T22:32:09.051Z,90.40
2018-03-22T22:34:36.602Z,91.00
2018-03-22T22:37:04.222Z,91.10
2018-03-22T22:39:31.966Z,91.00
2018-03-22T22:41:59.606Z,91.10
2018-03-22T22:44:27.524Z,91.30
2018-03-22T22:46:55.183Z,90.90
2018-03-22T22:49:22.733Z,90.80
2018-03-22T22:51:50.712Z,91.10
2018-03-22T22:54:18.281Z,91.30
2018-03-22T22:56:45.984Z,91.40
2018-03-22T22:59:13.534Z,91.30
2018-03-22T23:01:41.090Z,91.20
2018-03-22T23:04:08.648Z,91.00
2018-03-22T23:06:36.246Z,90.90
2018-03-22T23:09:03.844Z,91.50
2018-03-22T23:11:32.974Z,91.70
2018-03-22T23:14:00.561Z,91.70
2018-03-22T23:16:28.195Z,91.50
2018-03-22T23:18:56.569Z,91.40
2018-03-22T23:21:24.166Z,91.40
2018-03-22T23:23:51.781Z,91.60
2018-03-22T23:26:19.335Z,91.60
2018-03-22T23:28:46.930Z,91.60
2018-03-22T23:31:14.534Z,91.30
2018-03-22T23:33:42.091Z,91.60
2018-03-22T23:36:09.688Z,91.30
2018-03-22T23:38:38.006Z,91.50
2018-03-22T23:41:05.558Z,91.50
2018-03-22T23:43:33.205Z,91.70
2018-03-22T23:46:00.766Z,91.70
2018-03-22T23:48:28.538Z,91.50
2018-03-22T23:50:56.150Z,91.30
2018-03-22T23:53:23.694Z,91.30
2018-03-22T23:55:51.250Z,91.30
2018-03-22T23:58:18.886Z,91.30
